Time;durP1;ratioP1;P1;durP2;ratioP2;P2;SDS_P1;SDS_P2;PMS_P1;PMS_P2;Temp;Humidity;BMP_temperature;BMP_pressure;BME280_temperature;BME280_humidity;BME280_pressure;Samples;Min_cycle;Max_cycle;Signal;HPM_P1;HPM_P2
2022/01/26 00:00:57;;;;;;;;;;;3.80;91.10;;;;;;5078974;28;19967;-73
2022/01/26 00:06:09;;;;;;;;;;;3.80;91.10;;;;;;5068995;28;19919;-73
2022/01/26 00:08:35;;;;;;;;;;;3.80;90.90;;;;;;5075738;28;19908;-73
2022/01/26 00:11:01;;;;;;;;;;;3.80;90.90;;;;;;5079075;28;19923;-73
2022/01/26 00:13:27;;;;;;;;;;;3.80;90.80;;;;;;5078879;28;19968;-73
2022/01/26 00:15:53;;;;;;;;;;;3.80;90.90;;;;;;5079015;28;19955;-73
2022/01/26 00:18:21;;;;;;;;;;;3.80;90.90;;;;;;5078684;28;19913;-73
2022/01/26 00:20:56;;;;;;;;;;;3.80;90.80;;;;;;5078480;28;19920;-73
2022/01/26 00:26:03;;;;;;;;;;;3.80;90.80;;;;;;5078772;28;19940;-73
2022/01/26 00:28:35;;;;;;;;;;;3.80;90.80;;;;;;5065927;28;19913;-73
2022/01/26 00:32:56;;;;;;;;;;;3.80;90.90;;;;;;5078342;28;19935;-73
2022/01/26 00:38:33;;;;;;;;;;;3.80;90.80;;;;;;5077556;28;20378;-73
2022/01/26 00:39:48;;;;;;;;;;;3.80;91.00;;;;;;5066279;28;19914;-73
2022/01/26 00:42:14;;;;;;;;;;;3.80;91.00;;;;;;5078016;28;20384;-73
2022/01/26 00:44:44;;;;;;;;;;;3.80;91.00;;;;;;5078300;28;20103;-73
2022/01/26 00:47:10;;;;;;;;;;;3.80;91.00;;;;;;5078270;28;19928;-73
2022/01/26 00:49:36;;;;;;;;;;;3.80;91.00;;;;;;5078214;28;20275;-73
2022/01/26 00:52:05;;;;;;;;;;;3.80;91.00;;;;;;5078071;28;19908;-73
2022/01/26 00:54:31;;;;;;;;;;;3.80;91.00;;;;;;5078045;28;19922;-73
2022/01/26 00:56:57;;;;;;;;;;;3.80;91.20;;;;;;5078032;28;20310;-73
2022/01/26 00:59:22;;;;;;;;;;;3.80;91.00;;;;;;5076894;28;19908;-73
2022/01/26 01:01:48;;;;;;;;;;;3.80;90.90;;;;;;5076648;28;19931;-73
2022/01/26 01:04:14;;;;;;;;;;;3.80;90.90;;;;;;5076411;28;19909;-73
2022/01/26 01:06:48;;;;;;;;;;;3.70;90.90;;;;;;5064572;28;19917;-73
2022/01/26 01:09:15;;;;;;;;;;;3.70;90.90;;;;;;5076858;28;19958;-73
2022/01/26 01:11:41;;;;;;;;;;;3.70;90.80;;;;;;5076499;28;20279;-73
2022/01/26 01:14:07;;;;;;;;;;;3.70;90.80;;;;;;5076649;28;19908;-73
2022/01/26 01:16:33;;;;;;;;;;;3.70;90.90;;;;;;5076832;28;19920;-73
2022/01/26 01:19:11;;;;;;;;;;;3.70;90.90;;;;;;5076193;28;19950;-73
2022/01/26 01:29:17;;;;;;;;;;;3.70;90.80;;;;;;5077806;28;19915;-73
2022/01/26 01:31:48;;;;;;;;;;;3.70;90.80;;;;;;5077819;28;19915;-73
2022/01/26 01:34:15;;;;;;;;;;;3.70;90.90;;;;;;5075361;28;19962;-73
2022/01/26 01:36:43;;;;;;;;;;;3.70;91.00;;;;;;5077748;28;19915;-73
2022/01/26 01:39:09;;;;;;;;;;;3.70;91.00;;;;;;5076400;28;21373;-73
2022/01/26 01:41:35;;;;;;;;;;;3.70;90.90;;;;;;5077789;28;19956;-73
2022/01/26 01:44:02;;;;;;;;;;;3.70;90.90;;;;;;5077512;28;19913;-73
2022/01/26 01:46:28;;;;;;;;;;;3.70;90.90;;;;;;5077546;28;19912;-73
2022/01/26 01:48:53;;;;;;;;;;;3.70;90.90;;;;;;5077241;28;20775;-73
2022/01/26 01:51:26;;;;;;;;;;;3.70;90.90;;;;;;5077624;28;20378;-73
2022/01/26 01:53:51;;;;;;;;;;;3.70;90.90;;;;;;5077363;28;19983;-73
2022/01/26 01:56:20;;;;;;;;;;;3.70;90.80;;;;;;5076263;28;20390;-73
2022/01/26 01:58:46;;;;;;;;;;;3.70;90.80;;;;;;5076392;28;20003;-73
2022/01/26 02:01:11;;;;;;;;;;;3.70;90.80;;;;;;5077583;28;20704;-73
2022/01/26 02:03:37;;;;;;;;;;;3.60;90.80;;;;;;5077079;28;19915;-73
2022/01/26 02:06:03;;;;;;;;;;;3.60;90.80;;;;;;5067739;28;19961;-73
2022/01/26 02:08:28;;;;;;;;;;;3.60;90.70;;;;;;5073373;28;20034;-73
2022/01/26 02:10:54;;;;;;;;;;;3.60;90.80;;;;;;5077415;28;19908;-73
2022/01/26 02:13:34;;;;;;;;;;;3.60;90.80;;;;;;5077234;28;19908;-73
2022/01/26 02:21:10;;;;;;;;;;;3.60;90.70;;;;;;5077297;28;19915;-73
2022/01/26 03:02:04;;;;;;;;;;;3.50;90.90;;;;;;5062955;28;19908;-73
2022/01/26 03:04:49;;;;;;;;;;;3.60;91.00;;;;;;5080006;28;19908;-73
2022/01/26 03:09:48;;;;;;;;;;;3.50;90.90;;;;;;5080425;28;19995;-73
2022/01/26 03:12:23;;;;;;;;;;;3.50;90.90;;;;;;5067396;28;19957;-73
2022/01/26 03:14:55;;;;;;;;;;;3.50;90.90;;;;;;5080037;28;19930;-73
2022/01/26 03:20:07;;;;;;;;;;;3.50;90.80;;;;;;5079745;28;20054;-73
2022/01/26 03:38:05;;;;;;;;;;;3.40;90.90;;;;;;5079881;28;19909;-73
2022/01/26 03:40:34;;;;;;;;;;;3.40;90.90;;;;;;5078425;28;19916;-73
2022/01/26 03:43:00;;;;;;;;;;;3.40;90.90;;;;;;5079415;28;19920;-73
2022/01/26 03:45:26;;;;;;;;;;;3.40;90.90;;;;;;5079170;28;19955;-73
2022/01/26 03:47:53;;;;;;;;;;;3.40;91.00;;;;;;5079698;28;19935;-73
2022/01/26 03:50:19;;;;;;;;;;;3.30;90.90;;;;;;5078977;28;19908;-73
2022/01/26 03:52:44;;;;;;;;;;;3.30;91.00;;;;;;5079669;28;19908;-73
2022/01/26 03:55:10;;;;;;;;;;;3.30;91.00;;;;;;5079019;28;19908;-73
2022/01/26 03:57:36;;;;;;;;;;;3.30;91.10;;;;;;5079428;28;20003;-73
2022/01/26 04:00:03;;;;;;;;;;;3.30;91.00;;;;;;5079018;28;19963;-73
2022/01/26 04:02:28;;;;;;;;;;;3.30;91.00;;;;;;5077962;28;19951;-73
2022/01/26 04:04:59;;;;;;;;;;;3.20;91.00;;;;;;5077363;28;19912;-72
2022/01/26 04:07:25;;;;;;;;;;;3.20;91.00;;;;;;5065044;28;20442;-73
2022/01/26 04:09:50;;;;;;;;;;;3.20;90.90;;;;;;5079030;28;20017;-73
2022/01/26 04:12:16;;;;;;;;;;;3.10;90.90;;;;;;5079028;28;19913;-73
2022/01/26 04:14:47;;;;;;;;;;;3.10;90.80;;;;;;5078861;28;19946;-73
2022/01/26 04:17:12;;;;;;;;;;;3.20;90.80;;;;;;5079030;28;19908;-73
2022/01/26 04:19:40;;;;;;;;;;;3.10;90.80;;;;;;5078293;28;20436;-73
2022/01/26 04:22:20;;;;;;;;;;;3.10;90.80;;;;;;5078871;28;20378;-73
2022/01/26 04:24:50;;;;;;;;;;;3.10;90.70;;;;;;5078433;28;19951;-73
2022/01/26 04:27:25;;;;;;;;;;;3.10;90.80;;;;;;5077246;28;19912;-73
2022/01/26 04:29:51;;;;;;;;;;;3.10;90.80;;;;;;5078661;28;19954;-73
2022/01/26 04:32:17;;;;;;;;;;;3.10;90.80;;;;;;5078543;28;19943;-73
2022/01/26 04:34:45;;;;;;;;;;;3.10;90.70;;;;;;5071615;28;20356;-73
2022/01/26 04:37:39;;;;;;;;;;;3.10;90.70;;;;;;5070587;28;19908;-73
2022/01/26 04:40:08;;;;;;;;;;;3.10;90.80;;;;;;5078507;28;19908;-73
2022/01/26 04:42:44;;;;;;;;;;;3.10;90.80;;;;;;5078165;28;19927;-73
2022/01/26 04:45:11;;;;;;;;;;;3.00;90.70;;;;;;5078774;28;19915;-73
2022/01/26 04:47:37;;;;;;;;;;;3.00;90.70;;;;;;5078415;28;19912;-73
2022/01/26 04:50:03;;;;;;;;;;;3.00;90.70;;;;;;5077853;28;20283;-73
2022/01/26 04:52:29;;;;;;;;;;;3.00;90.70;;;;;;5077989;28;19909;-73
2022/01/26 04:54:54;;;;;;;;;;;3.00;90.70;;;;;;5078038;28;19908;-73
2022/01/26 04:57:20;;;;;;;;;;;2.90;90.60;;;;;;5078023;28;19908;-73
2022/01/26 04:59:45;;;;;;;;;;;2.90;90.60;;;;;;5078250;28;19915;-73
2022/01/26 05:02:11;;;;;;;;;;;2.90;90.50;;;;;;5078185;28;19916;-73
2022/01/26 05:04:37;;;;;;;;;;;2.90;90.40;;;;;;5076468;28;19909;-73
2022/01/26 05:07:02;;;;;;;;;;;2.80;90.40;;;;;;5074221;28;19912;-73
2022/01/26 05:09:28;;;;;;;;;;;2.80;90.40;;;;;;5076832;28;20433;-73
2022/01/26 05:11:55;;;;;;;;;;;2.80;90.40;;;;;;5077878;28;19915;-73
2022/01/26 05:14:22;;;;;;;;;;;2.80;90.40;;;;;;5077856;28;19939;-73
2022/01/26 05:16:48;;;;;;;;;;;2.80;90.40;;;;;;5076736;28;19908;-73
2022/01/26 05:19:14;;;;;;;;;;;2.80;90.40;;;;;;5077582;28;19954;-73
2022/01/26 05:21:41;;;;;;;;;;;2.70;90.40;;;;;;5077719;28;20007;-73
2022/01/26 05:24:07;;;;;;;;;;;2.70;90.40;;;;;;5076341;28;19916;-73
2022/01/26 05:26:33;;;;;;;;;;;2.70;90.40;;;;;;5077546;28;19960;-73
2022/01/26 05:28:58;;;;;;;;;;;2.70;90.40;;;;;;5078069;28;19935;-73
2022/01/26 05:31:24;;;;;;;;;;;2.70;90.50;;;;;;5077652;28;19916;-73
2022/01/26 05:33:50;;;;;;;;;;;2.70;90.50;;;;;;5077380;28;19913;-75
2022/01/26 05:36:16;;;;;;;;;;;2.70;90.50;;;;;;5077394;28;19974;-73
2022/01/26 05:38:42;;;;;;;;;;;2.60;90.50;;;;;;5076401;28;19910;-74
2022/01/26 05:41:08;;;;;;;;;;;2.70;90.50;;;;;;5077365;28;19916;-73
2022/01/26 05:43:34;;;;;;;;;;;2.60;90.50;;;;;;5077517;28;20391;-73
2022/01/26 05:46:05;;;;;;;;;;;2.70;90.50;;;;;;5077399;28;19935;-74
2022/01/26 05:48:31;;;;;;;;;;;2.60;90.40;;;;;;5077240;28;19908;-73
2022/01/26 05:51:05;;;;;;;;;;;2.60;90.40;;;;;;5077872;28;20007;-73
2022/01/26 05:53:32;;;;;;;;;;;2.60;90.40;;;;;;5077507;28;19999;-73
2022/01/26 05:55:58;;;;;;;;;;;2.60;90.40;;;;;;5076188;28;19944;-73
2022/01/26 05:58:24;;;;;;;;;;;2.60;90.40;;;;;;5077511;28;19909;-73
2022/01/26 06:00:49;;;;;;;;;;;2.60;90.30;;;;;;5077582;28;19915;-73
2022/01/26 06:03:15;;;;;;;;;;;2.60;90.30;;;;;;5079042;28;19999;-73
2022/01/26 06:05:41;;;;;;;;;;;2.60;90.30;;;;;;5073231;28;19916;-73
2022/01/26 06:08:06;;;;;;;;;;;2.60;90.40;;;;;;5074353;28;20275;-73
2022/01/26 06:10:32;;;;;;;;;;;2.60;90.30;;;;;;5081001;28;19909;-73
2022/01/26 06:12:58;;;;;;;;;;;2.60;90.30;;;;;;5081208;28;19932;-73
2022/01/26 06:15:24;;;;;;;;;;;2.60;90.30;;;;;;5081036;28;19913;-73
2022/01/26 06:17:50;;;;;;;;;;;2.60;90.30;;;;;;5081077;28;19909;-73
2022/01/26 06:20:15;;;;;;;;;;;2.60;90.30;;;;;;5080629;28;19958;-73
2022/01/26 06:22:41;;;;;;;;;;;2.60;90.30;;;;;;5079704;28;20252;-73
2022/01/26 06:25:07;;;;;;;;;;;2.50;90.30;;;;;;5080816;28;19913;-73
2022/01/26 06:27:34;;;;;;;;;;;2.60;90.30;;;;;;5079597;28;20379;-73
2022/01/26 06:30:01;;;;;;;;;;;2.60;90.30;;;;;;5068061;28;19916;-73
2022/01/26 06:32:27;;;;;;;;;;;2.50;90.30;;;;;;5080680;28;19952;-73
2022/01/26 06:34:53;;;;;;;;;;;2.50;90.30;;;;;;5080013;28;19908;-73
2022/01/26 06:37:19;;;;;;;;;;;2.50;90.30;;;;;;5080661;28;20419;-72
2022/01/26 06:39:44;;;;;;;;;;;2.50;90.30;;;;;;5079340;28;19908;-73
2022/01/26 06:42:16;;;;;;;;;;;2.50;90.20;;;;;;5080379;28;19920;-73
2022/01/26 06:49:51;;;;;;;;;;;2.40;90.30;;;;;;5080361;28;19955;-72
2022/01/26 06:52:16;;;;;;;;;;;2.40;90.30;;;;;;5080303;28;19917;-72
2022/01/26 06:54:42;;;;;;;;;;;2.40;90.30;;;;;;5080424;28;19916;-73
2022/01/26 06:57:07;;;;;;;;;;;2.30;90.30;;;;;;5078982;28;19914;-73
2022/01/26 06:59:33;;;;;;;;;;;2.30;90.30;;;;;;5080443;28;19909;-73
2022/01/26 07:01:59;;;;;;;;;;;2.30;90.30;;;;;;5080185;28;20397;-72
2022/01/26 07:04:24;;;;;;;;;;;2.30;90.40;;;;;;5079966;28;19908;-73
2022/01/26 07:06:50;;;;;;;;;;;2.30;90.30;;;;;;5066459;28;19912;-73
2022/01/26 07:09:16;;;;;;;;;;;2.30;90.30;;;;;;5080371;28;20386;-73
2022/01/26 07:11:42;;;;;;;;;;;2.30;90.30;;;;;;5080116;28;19952;-73
2022/01/26 07:14:10;;;;;;;;;;;2.20;90.30;;;;;;5078744;28;19916;-73
2022/01/26 07:22:04;;;;;;;;;;;2.20;90.30;;;;;;5067931;28;20437;-73
2022/01/26 07:24:30;;;;;;;;;;;2.20;90.30;;;;;;5078369;28;19913;-72
2022/01/26 07:26:55;;;;;;;;;;;2.20;90.30;;;;;;5080073;28;19912;-73
2022/01/26 07:29:24;;;;;;;;;;;2.20;90.20;;;;;;5078458;28;19908;-73
2022/01/26 07:31:51;;;;;;;;;;;2.20;90.30;;;;;;5078438;28;19908;-73
2022/01/26 07:34:19;;;;;;;;;;;2.20;90.30;;;;;;5078579;28;19912;-73
2022/01/26 07:36:47;;;;;;;;;;;2.20;90.30;;;;;;5079771;28;19916;-73
2022/01/26 07:39:16;;;;;;;;;;;2.20;90.30;;;;;;5079500;28;20329;-73
2022/01/26 07:41:42;;;;;;;;;;;2.20;90.30;;;;;;5079451;28;19940;-73
2022/01/26 07:44:07;;;;;;;;;;;2.20;90.20;;;;;;5079370;28;19958;-73
2022/01/26 07:46:33;;;;;;;;;;;2.20;90.30;;;;;;5079437;28;19913;-73
2022/01/26 07:48:59;;;;;;;;;;;2.10;90.20;;;;;;5079026;28;19991;-73
2022/01/26 07:51:25;;;;;;;;;;;2.20;90.30;;;;;;5079371;28;19947;-73
2022/01/26 07:53:51;;;;;;;;;;;2.10;90.60;;;;;;5079164;28;19908;-72
2022/01/26 07:56:16;;;;;;;;;;;2.20;90.30;;;;;;5079186;28;19944;-73
2022/01/26 07:58:43;;;;;;;;;;;2.20;90.40;;;;;;5078190;28;19956;-76
2022/01/26 08:01:08;;;;;;;;;;;2.20;90.40;;;;;;5079180;28;19934;-75
2022/01/26 08:03:34;;;;;;;;;;;2.20;90.40;;;;;;5078766;28;19952;-76
2022/01/26 08:06:01;;;;;;;;;;;2.20;90.40;;;;;;5069951;28;20390;-72
2022/01/26 08:08:27;;;;;;;;;;;2.20;90.40;;;;;;5074604;28;19908;-77
2022/01/26 08:10:52;;;;;;;;;;;2.20;90.40;;;;;;5078581;28;19908;-74
2022/01/26 08:13:18;;;;;;;;;;;2.20;90.40;;;;;;5078710;28;19937;-73
2022/01/26 08:15:44;;;;;;;;;;;2.20;90.40;;;;;;5079176;28;19915;-74
2022/01/26 08:18:09;;;;;;;;;;;2.20;90.40;;;;;;5078632;28;19908;-74
2022/01/26 08:20:35;;;;;;;;;;;2.20;90.40;;;;;;5078550;28;19934;-80
2022/01/26 08:23:01;;;;;;;;;;;2.20;90.50;;;;;;5077414;28;19916;-72
2022/01/26 08:25:28;;;;;;;;;;;2.20;90.50;;;;;;5078434;28;19935;-76
2022/01/26 08:28:04;;;;;;;;;;;2.20;90.50;;;;;;5078529;28;20421;-83
2022/01/26 08:30:31;;;;;;;;;;;2.20;90.50;;;;;;5078753;28;19974;-79
2022/01/26 08:32:57;;;;;;;;;;;2.20;90.50;;;;;;5078277;28;20008;-79
2022/01/26 08:35:22;;;;;;;;;;;2.20;90.50;;;;;;5077758;28;19947;-79
2022/01/26 08:37:48;;;;;;;;;;;2.30;90.60;;;;;;5078475;28;19908;-79
2022/01/26 08:40:14;;;;;;;;;;;2.30;90.60;;;;;;5078285;28;19915;-78
2022/01/26 08:42:41;;;;;;;;;;;2.30;90.60;;;;;;5073767;28;19920;-78
2022/01/26 08:45:07;;;;;;;;;;;2.30;90.50;;;;;;5076050;28;20409;-77
2022/01/26 08:47:33;;;;;;;;;;;2.30;90.60;;;;;;5077675;28;19913;-77
2022/01/26 08:49:58;;;;;;;;;;;2.40;90.60;;;;;;5077868;28;19912;-79
2022/01/26 08:52:24;;;;;;;;;;;2.40;90.60;;;;;;5078028;28;19909;-78
2022/01/26 08:54:50;;;;;;;;;;;2.50;90.60;;;;;;5078173;28;19916;-77
2022/01/26 08:57:15;;;;;;;;;;;2.50;90.60;;;;;;5078061;28;20367;-75
2022/01/26 08:59:41;;;;;;;;;;;2.50;90.60;;;;;;5078154;28;20367;-79
2022/01/26 09:02:07;;;;;;;;;;;2.50;90.50;;;;;;5077887;28;20336;-78
2022/01/26 09:04:33;;;;;;;;;;;2.60;90.60;;;;;;5077696;28;19958;-80
2022/01/26 09:07:01;;;;;;;;;;;2.60;90.80;;;;;;5062484;28;19913;-80
2022/01/26 09:09:30;;;;;;;;;;;2.70;90.60;;;;;;5075145;28;19909;-80
2022/01/26 09:11:58;;;;;;;;;;;2.70;90.60;;;;;;5076451;28;19960;-80
2022/01/26 09:14:27;;;;;;;;;;;2.80;90.60;;;;;;5077836;28;19931;-80
2022/01/26 09:16:54;;;;;;;;;;;2.80;90.60;;;;;;5077733;28;20307;-80
2022/01/26 09:19:29;;;;;;;;;;;2.80;90.60;;;;;;5076163;28;19908;-80
2022/01/26 09:21:59;;;;;;;;;;;2.80;90.60;;;;;;5064803;28;19908;-80
2022/01/26 09:24:28;;;;;;;;;;;2.90;90.50;;;;;;5076479;28;19915;-80
2022/01/26 09:26:54;;;;;;;;;;;2.90;90.40;;;;;;5076542;28;19942;-80
2022/01/26 09:29:20;;;;;;;;;;;2.90;90.40;;;;;;5077619;28;19908;-80
2022/01/26 09:31:47;;;;;;;;;;;2.90;90.40;;;;;;5077860;28;20325;-80
2022/01/26 09:34:20;;;;;;;;;;;2.90;90.30;;;;;;5074961;28;19920;-80
2022/01/26 09:36:46;;;;;;;;;;;3.00;90.30;;;;;;5067745;28;19930;-80
2022/01/26 09:39:13;;;;;;;;;;;3.00;90.30;;;;;;5081035;28;19915;-80
2022/01/26 09:41:38;;;;;;;;;;;3.00;90.30;;;;;;5081684;28;19908;-80
2022/01/26 09:44:04;;;;;;;;;;;3.00;90.30;;;;;;5081784;28;19908;-80
2022/01/26 09:46:31;;;;;;;;;;;3.00;90.30;;;;;;5081716;28;19913;-81
2022/01/26 09:48:57;;;;;;;;;;;3.00;90.30;;;;;;5080059;28;19948;-80
2022/01/26 09:51:22;;;;;;;;;;;3.10;90.30;;;;;;5081713;28;19908;-80
2022/01/26 09:53:58;;;;;;;;;;;3.10;90.20;;;;;;5081465;28;20363;-80
2022/01/26 09:56:24;;;;;;;;;;;3.20;90.30;;;;;;5081611;28;19908;-80
2022/01/26 09:58:50;;;;;;;;;;;3.20;90.30;;;;;;5081367;28;19915;-80
2022/01/26 10:01:16;;;;;;;;;;;3.30;90.30;;;;;;5080433;28;19939;-81
2022/01/26 10:03:43;;;;;;;;;;;3.30;90.30;;;;;;5081031;28;19908;-80
2022/01/26 10:06:17;;;;;;;;;;;3.40;90.40;;;;;;5071139;28;19913;-80
2022/01/26 10:18:56;;;;;;;;;;;3.60;90.30;;;;;;5080906;28;19909;-80
2022/01/26 10:21:22;;;;;;;;;;;3.60;90.20;;;;;;5080882;28;20580;-80
2022/01/26 10:23:48;;;;;;;;;;;3.60;90.10;;;;;;5081100;28;19915;-80
2022/01/26 10:26:15;;;;;;;;;;;3.60;90.10;;;;;;5080803;28;19913;-81
2022/01/26 10:28:46;;;;;;;;;;;3.70;90.20;;;;;;5080837;28;19936;-80
2022/01/26 10:31:15;;;;;;;;;;;3.70;90.20;;;;;;5079494;28;19909;-80
2022/01/26 10:33:51;;;;;;;;;;;3.80;90.30;;;;;;5080630;28;19908;-80
2022/01/26 10:36:17;;;;;;;;;;;3.80;90.30;;;;;;5067168;28;19912;-80
2022/01/26 10:38:43;;;;;;;;;;;3.80;90.20;;;;;;5080983;28;19908;-80
2022/01/26 10:41:19;;;;;;;;;;;3.80;90.20;;;;;;5080723;28;19912;-80
2022/01/26 10:43:48;;;;;;;;;;;3.80;90.10;;;;;;5079152;28;19999;-80
2022/01/26 10:46:24;;;;;;;;;;;3.90;90.20;;;;;;5080555;28;19913;-80
2022/01/26 10:49:07;;;;;;;;;;;4.00;90.30;;;;;;5079713;28;19909;-80
2022/01/26 10:51:59;;;;;;;;;;;4.00;90.30;;;;;;5080699;28;19908;-80
2022/01/26 10:56:51;;;;;;;;;;;4.00;90.20;;;;;;5080623;28;20355;-80
2022/01/26 10:59:16;;;;;;;;;;;4.10;90.10;;;;;;5079156;28;20003;-80
2022/01/26 11:01:42;;;;;;;;;;;4.10;90.00;;;;;;5080411;28;19955;-80
2022/01/26 11:04:08;;;;;;;;;;;4.10;90.00;;;;;;5080267;28;19908;-80
2022/01/26 11:06:34;;;;;;;;;;;4.10;90.00;;;;;;5066752;28;19995;-80
2022/01/26 11:09:07;;;;;;;;;;;4.20;89.80;;;;;;5080212;28;20266;-80
2022/01/26 11:11:34;;;;;;;;;;;4.20;89.60;;;;;;5078800;28;19958;-80
2022/01/26 11:14:00;;;;;;;;;;;4.20;89.70;;;;;;5080148;28;19909;-80
2022/01/26 11:16:25;;;;;;;;;;;4.20;89.80;;;;;;5078611;28;19920;-79
2022/01/26 11:18:52;;;;;;;;;;;4.30;90.00;;;;;;5079991;28;20034;-83
2022/01/26 11:21:44;;;;;;;;;;;4.30;89.90;;;;;;5078471;28;19934;-82
2022/01/26 11:24:19;;;;;;;;;;;4.30;89.80;;;;;;5077732;28;19909;-79
2022/01/26 11:26:46;;;;;;;;;;;4.30;89.50;;;;;;5066582;28;19999;-82
2022/01/26 11:29:16;;;;;;;;;;;4.30;89.40;;;;;;5079854;28;20286;-81
2022/01/26 11:31:42;;;;;;;;;;;4.40;89.60;;;;;;5079798;28;19912;-81
2022/01/26 11:34:10;;;;;;;;;;;4.40;89.60;;;;;;5077572;28;19908;-81
2022/01/26 11:36:37;;;;;;;;;;;4.50;89.80;;;;;;5068165;28;19954;-80
2022/01/26 11:42:14;;;;;;;;;;;4.50;89.70;;;;;;5079513;28;19961;-80
2022/01/26 11:42:18;;;;;;;;;;;4.60;89.60;;;;;;5079305;28;19920;-81
2022/01/26 11:45:05;;;;;;;;;;;4.60;89.60;;;;;;5068624;28;20287;-81
2022/01/26 11:47:32;;;;;;;;;;;4.60;89.60;;;;;;5079245;28;19935;-81
2022/01/26 11:50:03;;;;;;;;;;;4.70;89.80;;;;;;5078114;28;19908;-81
2022/01/26 11:52:35;;;;;;;;;;;4.70;89.90;;;;;;5079144;28;19958;-80
2022/01/26 11:55:01;;;;;;;;;;;4.80;89.90;;;;;;5079125;28;19912;-80
2022/01/26 11:57:37;;;;;;;;;;;4.80;89.50;;;;;;5079480;28;19916;-79
2022/01/26 12:00:06;;;;;;;;;;;4.90;89.70;;;;;;5078511;28;19915;-79
2022/01/26 12:05:15;;;;;;;;;;;4.90;89.40;;;;;;5076249;28;19931;-80
2022/01/26 12:07:50;;;;;;;;;;;4.90;89.20;;;;;;5068517;28;19913;-82
2022/01/26 12:10:23;;;;;;;;;;;5.00;89.40;;;;;;5078741;28;20268;-82
2022/01/26 12:12:57;;;;;;;;;;;5.00;89.60;;;;;;5077546;28;19974;-80
2022/01/26 12:15:25;;;;;;;;;;;5.00;89.40;;;;;;5078767;28;19908;-86
2022/01/26 12:18:01;;;;;;;;;;;5.00;89.00;;;;;;5077775;28;19909;-84
2022/01/26 12:37:05;;;;;;;;;;;5.50;89.20;;;;;;5078475;28;19915;-83
2022/01/26 12:42:41;;;;;;;;;;;5.60;89.20;;;;;;5078166;28;19982;-83
2022/01/26 12:45:02;;;;;;;;;;;5.60;89.20;;;;;;5078253;28;19912;-85
2022/01/26 12:47:29;;;;;;;;;;;5.60;89.10;;;;;;5078082;28;19912;-79
2022/01/26 12:49:57;;;;;;;;;;;5.70;89.20;;;;;;5075955;28;20181;-83
2022/01/26 12:52:23;;;;;;;;;;;5.70;89.10;;;;;;5077825;28;19962;-84
2022/01/26 12:54:49;;;;;;;;;;;5.70;89.50;;;;;;5071165;28;19909;-83
2022/01/26 12:57:15;;;;;;;;;;;5.70;88.70;;;;;;5067061;28;20339;-80
2022/01/26 12:59:40;;;;;;;;;;;5.80;88.70;;;;;;5076787;28;19909;-77
2022/01/26 13:02:06;;;;;;;;;;;5.70;88.80;;;;;;5077753;28;20272;-81
2022/01/26 13:04:32;;;;;;;;;;;5.80;89.00;;;;;;5077486;28;19908;-81
2022/01/26 13:06:57;;;;;;;;;;;5.80;88.90;;;;;;5074951;28;19963;-81
2022/01/26 13:09:49;;;;;;;;;;;;;;;;;;;;;
2022/01/26 13:12:17;;;;;;;;;;;5.90;88.70;;;;;;5075354;28;20011;-89
2022/01/26 13:14:55;;;;;;;;;;;5.90;88.60;;;;;;5077733;28;19909;-84
2022/01/26 13:25:19;;;;;;;;;;;6.10;88.50;;;;;;5066627;28;19948;-79
2022/01/26 13:28:15;;;;;;;;;;;6.20;88.50;;;;;;5077411;28;20023;-78
2022/01/26 13:38:41;;;;;;;;;;;6.40;87.70;;;;;;5077817;28;19999;-79
2022/01/26 13:54:28;;;;;;;;;;;6.70;86.30;;;;;;5077148;28;19909;-77
2022/01/26 14:01:49;;;;;;;;;;;6.90;85.10;;;;;;5077121;28;19944;-77
2022/01/26 14:04:16;;;;;;;;;;;7.00;85.10;;;;;;5076894;28;19913;-78
2022/01/26 14:06:42;;;;;;;;;;;7.00;85.00;;;;;;5066401;28;20272;-77
2022/01/26 14:09:08;;;;;;;;;;;7.20;84.80;;;;;;5077329;28;19917;-77
2022/01/26 14:11:33;;;;;;;;;;;7.20;84.50;;;;;;5074074;28;19966;-78
2022/01/26 14:14:00;;;;;;;;;;;7.30;84.20;;;;;;5075877;28;19913;-79
2022/01/26 14:16:28;;;;;;;;;;;7.30;83.60;;;;;;5080115;28;19913;-79
2022/01/26 14:19:26;;;;;;;;;;;7.30;83.00;;;;;;5076742;28;19948;-78
2022/01/26 14:24:29;;;;;;;;;;;7.00;82.60;;;;;;5078871;28;20395;-79
2022/01/26 14:26:58;;;;;;;;;;;7.00;82.80;;;;;;5079752;28;19935;-79
2022/01/26 14:39:27;;;;;;;;;;;6.70;83.80;;;;;;5080636;28;20003;-78
2022/01/26 14:40:05;;;;;;;;;;;6.70;83.20;;;;;;5080439;28;19915;-78
2022/01/26 15:10:28;;;;;;;;;;;6.20;84.10;;;;;;5079856;28;19957;-76
2022/01/26 15:50:25;;;;;;;;;;;5.60;85.10;;;;;;5079102;28;19915;-81
2022/01/26 15:53:05;;;;;;;;;;;5.60;85.10;;;;;;5068573;28;19991;-80
2022/01/26 16:06:19;;;;;;;;;;;5.40;85.20;;;;;;5068811;28;20016;-81
2022/01/26 16:36:17;;;;;;;;;;;4.80;85.90;;;;;;5076826;28;19962;-81
2022/01/26 16:38:59;;;;;;;;;;;4.70;85.90;;;;;;5078402;28;19909;-81
2022/01/26 18:04:00;;;;;;;;;;;3.40;86.80;;;;;;5077161;28;19918;-73
2022/01/26 18:33:19;;;;;;;;;;;2.70;87.80;;;;;;5073381;28;20283;-75
2022/01/26 18:51:35;;;;;;;;;;;2.90;88.80;;;;;;5080505;28;20386;-80
2022/01/26 18:54:00;;;;;;;;;;;2.90;88.90;;;;;;5071684;28;19909;-79
2022/01/26 18:56:27;;;;;;;;;;;2.90;89.10;;;;;;5080248;28;19908;-80
2022/01/26 18:58:53;;;;;;;;;;;3.00;89.30;;;;;;5066892;28;19958;-80
2022/01/26 19:01:19;;;;;;;;;;;3.00;89.40;;;;;;5080246;28;19908;-81
2022/01/26 19:03:44;;;;;;;;;;;3.10;89.60;;;;;;5079526;28;19913;-76
2022/01/26 19:06:10;;;;;;;;;;;3.10;89.70;;;;;;5073713;28;19959;-76
2022/01/26 19:08:38;;;;;;;;;;;3.10;89.60;;;;;;5080139;28;19959;-76
2022/01/26 19:11:03;;;;;;;;;;;3.20;89.80;;;;;;5079387;28;19908;-76
2022/01/26 19:13:31;;;;;;;;;;;3.20;89.80;;;;;;5080030;28;19909;-73
2022/01/26 19:16:04;;;;;;;;;;;3.30;90.10;;;;;;5080004;28;19908;-73
2022/01/26 19:18:48;;;;;;;;;;;3.30;90.10;;;;;;5079327;28;19931;-72
2022/01/26 19:21:24;;;;;;;;;;;3.40;90.10;;;;;;5075335;28;20379;-71
2022/01/26 19:24:19;;;;;;;;;;;3.40;90.00;;;;;;5079483;28;19908;-72
2022/01/26 19:26:50;;;;;;;;;;;3.40;90.00;;;;;;5073900;28;19912;-71
2022/01/26 19:32:39;;;;;;;;;;;3.50;89.90;;;;;;5079877;28;19982;-74
2022/01/26 19:46:27;;;;;;;;;;;3.60;90.20;;;;;;5078398;28;19954;-74
2022/01/26 19:51:46;;;;;;;;;;;3.60;90.20;;;;;;5079646;28;20318;-74
2022/01/26 19:54:12;;;;;;;;;;;3.60;90.20;;;;;;5067415;28;20256;-75
2022/01/26 19:56:37;;;;;;;;;;;3.70;90.20;;;;;;5078968;28;20011;-74
2022/01/26 19:59:03;;;;;;;;;;;3.70;90.20;;;;;;5079430;28;20382;-75
2022/01/26 20:01:29;;;;;;;;;;;3.70;90.20;;;;;;5079072;28;19908;-74
2022/01/26 20:03:54;;;;;;;;;;;3.70;90.20;;;;;;5078789;28;19915;-75
2022/01/26 20:06:20;;;;;;;;;;;3.70;90.20;;;;;;5068841;28;19912;-73
2022/01/26 20:09:32;;;;;;;;;;;3.70;90.40;;;;;;5078914;28;20284;-73
2022/01/26 20:11:41;;;;;;;;;;;3.70;90.40;;;;;;5075609;28;19916;-73
2022/01/26 20:14:07;;;;;;;;;;;3.70;90.30;;;;;;5078742;28;19914;-73
2022/01/26 20:16:33;;;;;;;;;;;3.80;90.30;;;;;;5077341;28;19940;-73
2022/01/26 20:19:00;;;;;;;;;;;3.80;90.30;;;;;;5078870;28;19944;-73
2022/01/26 20:21:26;;;;;;;;;;;3.80;90.30;;;;;;5081871;28;19908;-73
2022/01/26 20:23:52;;;;;;;;;;;3.80;90.30;;;;;;5078487;28;19915;-73
2022/01/26 20:26:18;;;;;;;;;;;3.80;90.30;;;;;;5078404;28;19916;-73
2022/01/26 20:28:44;;;;;;;;;;;3.80;90.40;;;;;;5078473;28;19915;-73
2022/01/26 20:31:22;;;;;;;;;;;3.80;90.30;;;;;;5078650;28;19909;-73
2022/01/26 20:33:49;;;;;;;;;;;3.80;90.30;;;;;;5077934;28;20015;-73
2022/01/26 20:36:15;;;;;;;;;;;3.80;90.30;;;;;;5077601;28;19908;-73
2022/01/26 20:38:41;;;;;;;;;;;3.80;90.20;;;;;;5078396;28;19926;-73
2022/01/26 20:41:07;;;;;;;;;;;3.80;90.20;;;;;;5077375;28;19908;-73
2022/01/26 20:43:32;;;;;;;;;;;3.80;90.20;;;;;;5078096;28;19920;-73
2022/01/26 20:46:00;;;;;;;;;;;3.80;90.30;;;;;;5078130;28;19909;-73
2022/01/26 20:48:26;;;;;;;;;;;3.80;90.30;;;;;;5082796;28;19917;-73
2022/01/26 20:50:51;;;;;;;;;;;3.80;90.30;;;;;;5077406;28;19912;-73
2022/01/26 20:53:17;;;;;;;;;;;3.80;90.30;;;;;;5073571;28;20298;-73
2022/01/26 20:55:43;;;;;;;;;;;3.80;90.30;;;;;;5077997;28;19915;-73
2022/01/26 20:58:08;;;;;;;;;;;3.80;90.30;;;;;;5076609;28;19985;-73
2022/01/26 21:00:34;;;;;;;;;;;3.80;90.40;;;;;;5077870;28;19955;-73
2022/01/26 21:03:00;;;;;;;;;;;3.80;90.40;;;;;;5077518;28;19909;-73
2022/01/26 21:05:29;;;;;;;;;;;3.80;90.40;;;;;;5073534;28;19913;-73
2022/01/26 21:07:56;;;;;;;;;;;3.90;90.50;;;;;;5076468;28;19916;-73
2022/01/26 21:10:22;;;;;;;;;;;3.80;90.50;;;;;;5077723;28;19983;-72
2022/01/26 21:12:48;;;;;;;;;;;3.80;90.50;;;;;;5077769;28;19958;-75
2022/01/26 21:15:14;;;;;;;;;;;3.80;90.50;;;;;;5063027;28;20359;-73
2022/01/26 21:17:40;;;;;;;;;;;3.90;90.60;;;;;;5077901;28;19912;-74
2022/01/26 21:20:08;;;;;;;;;;;3.90;90.60;;;;;;5077638;28;19909;-73
2022/01/26 21:22:33;;;;;;;;;;;3.90;90.60;;;;;;5077908;28;19944;-73
2022/01/26 21:24:59;;;;;;;;;;;3.90;90.60;;;;;;5077592;28;19909;-74
2022/01/26 21:27:24;;;;;;;;;;;3.90;90.60;;;;;;5077998;28;19913;-73
2022/01/26 21:29:50;;;;;;;;;;;3.90;90.60;;;;;;5077760;28;20430;-73
2022/01/26 21:32:16;;;;;;;;;;;3.90;90.60;;;;;;5076307;28;19971;-74
2022/01/26 21:34:42;;;;;;;;;;;3.90;90.60;;;;;;5076307;28;19915;-74